createdAt,value
2017-02-14T00:01:41.620Z,95.5
2017-02-14T00:11:50.273Z,95.9
2017-02-14T00:22:04.292Z,96.6
2017-02-14T00:32:18.031Z,96.7
2017-02-14T00:42:32.731Z,96.3
2017-02-14T00:52:52.201Z,97
2017-02-14T01:03:01.339Z,96.7
2017-02-14T01:13:15.492Z,97.4
2017-02-14T01:23:30.510Z,97.4
2017-02-14T01:33:44.680Z,96.5
2017-02-14T01:43:58.450Z,97.8
2017-02-14T01:54:12.514Z,97.3
2017-02-14T02:04:27.494Z,97.4
2017-02-14T02:14:42.380Z,98
2017-02-14T02:24:56.499Z,97.7
2017-02-14T02:35:09.617Z,97.5
2017-02-14T02:45:23.028Z,97.6
2017-02-14T02:55:37.235Z,97.2
2017-02-14T03:05:50.279Z,97.1
2017-02-14T03:16:03.538Z,96.4
2017-02-14T03:26:16.871Z,96.7
2017-02-14T03:36:31.309Z,96.7
2017-02-14T03:46:45.740Z,96.7
2017-02-14T03:57:00.294Z,96.8
2017-02-14T04:07:15.226Z,96.5
2017-02-14T04:17:29.077Z,95.9
2017-02-14T04:27:42.613Z,95.8
2017-02-14T04:37:56.659Z,95.6
2017-02-14T04:48:10.154Z,95.6
2017-02-14T04:58:24.233Z,95.1
2017-02-14T05:08:38.848Z,94.9
2017-02-14T05:18:52.448Z,95.1
2017-02-14T05:29:06.731Z,94.4
2017-02-14T05:39:21.135Z,94.3
2017-02-14T05:49:35.822Z,94.2
2017-02-14T05:59:49.674Z,94.2
2017-02-14T06:10:04.552Z,94.3
2017-02-14T06:20:17.599Z,94.4
2017-02-14T06:30:31.304Z,94.6
2017-02-14T06:40:45.752Z,94.9
2017-02-14T06:50:59.303Z,95.2
2017-02-14T07:01:13.461Z,95.2
2017-02-14T07:11:46.005Z,94.8
2017-02-14T07:21:41.741Z,94.9
2017-02-14T07:31:56.333Z,94.8
2017-02-14T07:42:11.244Z,93.8
2017-02-14T07:52:33.691Z,93.8
2017-02-14T08:02:39.315Z,93.1
2017-02-14T08:12:53.082Z,92.2
2017-02-14T08:23:06.474Z,91.4
2017-02-14T08:33:25.444Z,90.7
2017-02-14T08:43:35.559Z,89.4
2017-02-14T08:53:49.598Z,88.7
2017-02-14T09:04:03.907Z,88
2017-02-14T09:14:17.575Z,85.5
2017-02-14T09:24:30.720Z,84.6
2017-02-14T09:34:44.714Z,83.2
2017-02-14T09:44:58.791Z,83
2017-02-14T09:55:12.766Z,82
2017-02-14T10:05:27.582Z,81.6
2017-02-14T10:15:43.695Z,80
2017-02-14T10:25:54.841Z,79.1
2017-02-14T10:36:09.853Z,78.3
2017-02-14T10:46:24.154Z,77.2
2017-02-14T10:56:38.192Z,76.7
2017-02-14T11:06:53.314Z,76.4
2017-02-14T11:17:08.156Z,76
2017-02-14T11:27:21.921Z,75.2
2017-02-14T11:37:46.275Z,74.6
2017-02-14T11:47:49.199Z,73.9
2017-02-14T11:58:02.777Z,73.2
2017-02-14T12:08:17.876Z,72.3
2017-02-14T12:18:32.593Z,71.4
2017-02-14T12:28:47.661Z,70.6
2017-02-14T12:39:01.694Z,70.4
2017-02-14T12:49:16.413Z,69.6
2017-02-14T12:59:31.581Z,69.2
2017-02-14T13:09:46.316Z,69
2017-02-14T13:20:01.284Z,68.5
2017-02-14T13:30:15.534Z,68.4
2017-02-14T13:40:29.842Z,67.6
2017-02-14T13:50:44.021Z,67.4
2017-02-14T14:00:58.868Z,67.5
2017-02-14T14:11:13.312Z,67.7
2017-02-14T14:21:27.469Z,67.5
2017-02-14T14:31:40.664Z,67.5
2017-02-14T14:41:54.040Z,67.4
2017-02-14T14:52:16.746Z,67.4
2017-02-14T15:02:22.876Z,68
2017-02-14T15:12:36.825Z,68.1
2017-02-14T15:22:50.438Z,68.4
2017-02-14T15:33:05.445Z,68.5
2017-02-14T15:43:20.104Z,69.4
2017-02-14T15:53:34.007Z,69.8
2017-02-14T16:03:49.075Z,70.1
2017-02-14T16:14:09.584Z,70.5
2017-02-14T16:24:19.626Z,70.8
2017-02-14T16:34:42.639Z,72.1
2017-02-14T16:44:50.656Z,73.3
2017-02-14T16:55:01.243Z,74.5
2017-02-14T17:05:14.663Z,76.1
2017-02-14T17:15:29.620Z,77.1
2017-02-14T17:25:42.983Z,76.7
2017-02-14T17:35:56.578Z,78.2
2017-02-14T17:46:09.856Z,78
2017-02-14T17:56:23.518Z,79.3
2017-02-14T18:06:37.097Z,80
2017-02-14T18:16:51.057Z,82.6
2017-02-14T18:27:09.079Z,84
2017-02-14T18:37:19.782Z,84.7
2017-02-14T18:47:35.973Z,86
2017-02-14T18:57:47.731Z,88.6
2017-02-14T19:08:01.130Z,88.7
2017-02-14T19:18:15.546Z,88.9
2017-02-14T19:28:30.593Z,90.2
2017-02-14T19:38:56.354Z,90.3
2017-02-14T19:48:59.499Z,91.2
2017-02-14T19:59:12.556Z,92.8
2017-02-14T20:09:25.739Z,93.8
2017-02-14T20:19:40.142Z,95.1
2017-02-14T20:29:59.224Z,94.4
2017-02-14T20:40:08.291Z,95.6
2017-02-14T20:50:22.459Z,94.7
2017-02-14T21:00:37.023Z,96
2017-02-14T21:10:50.700Z,97
2017-02-14T21:21:04.533Z,98.8
2017-02-14T21:31:18.018Z,98.5
2017-02-14T21:41:34.774Z,98.1
2017-02-14T21:51:46.296Z,100
2017-02-14T22:02:00.204Z,99.4
2017-02-14T22:12:13.988Z,100
2017-02-14T22:22:28.917Z,100
2017-02-14T22:32:43.469Z,100
2017-02-14T22:43:10.270Z,100
2017-02-14T22:53:12.605Z,100
2017-02-14T23:03:25.859Z,100
2017-02-14T23:13:39.714Z,100
2017-02-14T23:23:53.252Z,100
2017-02-14T23:34:07.839Z,100
2017-02-14T23:44:21.038Z,100
2017-02-14T23:54:34.353Z,100
